createdAt,value
2022-11-12T00:00:11.616Z,5.70
2022-11-12T00:02:13.444Z,5.80
2022-11-12T00:04:15.175Z,5.80
2022-11-12T00:06:16.824Z,5.70
2022-11-12T00:08:19.045Z,5.60
2022-11-12T00:10:21.273Z,5.60
2022-11-12T00:12:22.899Z,5.50
2022-11-12T00:14:24.687Z,5.40
2022-11-12T00:16:26.367Z,5.30
2022-11-12T00:18:28.475Z,5.20
2022-11-12T00:20:30.461Z,5.20
2022-11-12T00:22:32.125Z,5.20
2022-11-12T00:24:33.832Z,5.20
2022-11-12T00:26:35.540Z,5.30
2022-11-12T00:28:38.353Z,5.30
2022-11-12T00:30:41.027Z,5.40
2022-11-12T00:32:42.713Z,5.50
2022-11-12T00:34:44.533Z,5.50
2022-11-12T00:36:46.291Z,5.60
2022-11-12T00:38:47.925Z,5.60
2022-11-12T00:40:49.567Z,5.60
2022-11-12T00:42:52.467Z,5.60
2022-11-12T00:44:54.129Z,5.60
2022-11-12T00:46:56.801Z,5.60
2022-11-12T00:48:58.547Z,5.60
2022-11-12T00:51:05.064Z,5.50
2022-11-12T00:53:06.701Z,5.40
2022-11-12T00:55:08.431Z,5.30
2022-11-12T00:57:10.018Z,5.10
2022-11-12T00:59:11.932Z,5.10
2022-11-12T01:01:15.281Z,5.10
2022-11-12T01:03:17.052Z,5.00
2022-11-12T01:05:19.923Z,4.90
2022-11-12T01:07:21.589Z,4.90
2022-11-12T01:09:23.286Z,4.90
2022-11-12T01:11:29.617Z,4.90
2022-11-12T01:13:31.265Z,4.80
2022-11-12T01:15:33.072Z,4.80
2022-11-12T01:17:34.940Z,4.80
2022-11-12T01:19:36.645Z,4.80
2022-11-12T01:21:41.057Z,4.80
2022-11-12T01:23:43.230Z,4.80
2022-11-12T01:25:44.879Z,4.80
2022-11-12T01:27:46.850Z,4.90
2022-11-12T01:29:48.512Z,4.90
2022-11-12T01:31:50.202Z,5.00
2022-11-12T01:34:00.596Z,4.90
2022-11-12T01:36:02.280Z,4.90
2022-11-12T01:38:03.879Z,4.90
2022-11-12T01:40:06.131Z,4.90
2022-11-12T01:42:07.889Z,5.00
2022-11-12T01:44:21.594Z,5.00
2022-11-12T01:46:28.577Z,5.10
2022-11-12T01:48:39.638Z,5.00
2022-11-12T01:50:41.696Z,5.00
2022-11-12T01:52:48.825Z,4.90
2022-11-12T01:54:53.612Z,4.90
2022-11-12T01:56:57.481Z,4.80
2022-11-12T01:59:16.816Z,4.80
2022-11-12T02:01:18.531Z,4.90
2022-11-12T02:03:23.129Z,4.80
2022-11-12T02:05:26.915Z,4.80
2022-11-12T02:07:29.649Z,4.80
2022-11-12T02:09:31.801Z,4.80
2022-11-12T02:11:33.495Z,4.80
2022-11-12T02:13:53.497Z,4.80
2022-11-12T02:15:56.116Z,4.90
2022-11-12T02:17:57.769Z,5.00
2022-11-12T02:20:01.242Z,5.00
2022-11-12T02:22:02.912Z,4.90
2022-11-12T02:24:06.668Z,4.80
2022-11-12T02:26:08.304Z,4.70
2022-11-12T02:28:10.192Z,4.70
2022-11-12T02:30:12.572Z,4.70
2022-11-12T02:32:14.751Z,4.70
2022-11-12T02:34:16.443Z,4.70
2022-11-12T02:36:18.092Z,4.70
2022-11-12T02:38:19.810Z,4.70
2022-11-12T02:40:22.011Z,4.80
2022-11-12T02:42:23.641Z,4.80
2022-11-12T02:44:25.451Z,4.70
2022-11-12T02:46:27.120Z,4.70
2022-11-12T02:48:29.130Z,4.70
2022-11-12T02:50:31.018Z,4.70
2022-11-12T02:52:32.651Z,4.70
2022-11-12T02:54:34.279Z,4.80
2022-11-12T02:56:36.031Z,4.80
2022-11-12T02:58:37.658Z,5.00
2022-11-12T03:00:39.490Z,5.00
2022-11-12T03:02:58.801Z,5.00
2022-11-12T03:05:00.488Z,5.00
2022-11-12T03:07:02.477Z,5.00
2022-11-12T03:09:04.170Z,5.10
2022-11-12T03:11:07.755Z,5.10
2022-11-12T03:13:09.579Z,5.10
2022-11-12T03:15:11.204Z,5.00
2022-11-12T03:17:12.829Z,4.90
2022-11-12T03:19:14.455Z,4.90
2022-11-12T03:21:16.168Z,4.80
2022-11-12T03:23:17.997Z,4.70
2022-11-12T03:25:19.625Z,4.70
2022-11-12T03:27:21.270Z,4.60
2022-11-12T03:29:23.104Z,4.60
2022-11-12T03:31:24.760Z,4.50
2022-11-12T03:33:26.520Z,4.50
2022-11-12T03:35:28.629Z,4.50
2022-11-12T03:37:30.278Z,4.60
2022-11-12T03:39:31.896Z,4.70
2022-11-12T03:41:33.559Z,4.90
2022-11-12T03:43:35.172Z,5.00
2022-11-12T03:45:36.897Z,5.10
2022-11-12T03:47:48.633Z,5.20
2022-11-12T03:49:50.448Z,5.30
2022-11-12T03:51:52.078Z,5.40
2022-11-12T03:53:53.848Z,5.50
2022-11-12T03:55:55.478Z,5.60
2022-11-12T03:57:57.872Z,5.70
2022-11-12T03:59:59.498Z,5.70
2022-11-12T04:02:01.146Z,5.70
2022-11-12T04:04:02.786Z,5.70
2022-11-12T04:06:23.248Z,5.70
2022-11-12T04:08:37.084Z,5.60
2022-11-12T04:10:38.696Z,5.60
2022-11-12T04:12:59.046Z,5.70
2022-11-12T04:15:00.661Z,5.70
2022-11-12T04:17:20.706Z,5.70
2022-11-12T04:19:40.880Z,5.70
2022-11-12T04:21:50.833Z,5.70
2022-11-12T04:23:52.459Z,5.70
2022-11-12T04:26:12.838Z,5.80
2022-11-12T04:28:14.655Z,5.80
2022-11-12T04:30:16.345Z,5.80
2022-11-12T04:32:18.747Z,5.70
2022-11-12T04:34:29.447Z,5.70
2022-11-12T04:36:31.248Z,5.60
2022-11-12T04:38:32.938Z,5.60
2022-11-12T04:40:53.360Z,5.50
2022-11-12T04:43:13.760Z,5.40
2022-11-12T04:45:15.416Z,5.50
2022-11-12T04:47:17.060Z,5.50
2022-11-12T04:49:18.675Z,5.50
2022-11-12T04:51:38.863Z,5.50
2022-11-12T04:53:40.480Z,5.60
2022-11-12T04:55:42.180Z,5.60
2022-11-12T04:57:43.897Z,5.60
2022-11-12T04:59:46.185Z,5.50
2022-11-12T05:01:47.850Z,5.50
2022-11-12T05:03:49.933Z,5.50
2022-11-12T05:05:51.629Z,5.40
2022-11-12T05:07:53.277Z,5.40
2022-11-12T05:09:54.922Z,5.30
2022-11-12T05:11:57.351Z,5.30
2022-11-12T05:13:59.045Z,5.30
2022-11-12T05:16:00.666Z,5.20
2022-11-12T05:18:02.416Z,5.10
2022-11-12T05:20:04.807Z,5.10
2022-11-12T05:22:06.905Z,5.00
2022-11-12T05:24:17.849Z,5.00
2022-11-12T05:26:31.319Z,4.90
2022-11-12T05:28:32.942Z,4.80
2022-11-12T05:30:34.947Z,4.80
2022-11-12T05:32:36.525Z,4.80
2022-11-12T05:34:38.336Z,4.70
2022-11-12T05:36:40.129Z,4.60
2022-11-12T05:38:41.861Z,4.40
2022-11-12T05:40:46.299Z,4.30
2022-11-12T05:42:47.895Z,4.20
2022-11-12T05:44:49.628Z,4.20
2022-11-12T05:46:51.449Z,4.20
2022-11-12T05:48:53.132Z,4.20
2022-11-12T05:53:16.555Z,4.30
2022-11-12T05:55:18.151Z,4.30
2022-11-12T05:57:19.865Z,4.40
2022-11-12T05:59:22.405Z,4.50
2022-11-12T06:01:24.557Z,4.60
2022-11-12T06:03:27.059Z,4.60
2022-11-12T06:05:28.756Z,4.50
2022-11-12T06:07:30.528Z,4.60
2022-11-12T06:09:32.145Z,4.60
2022-11-12T06:11:34.323Z,4.60
2022-11-12T06:13:36.115Z,4.70
2022-11-12T06:15:39.414Z,4.70
2022-11-12T06:17:42.236Z,4.80
2022-11-12T06:19:43.929Z,4.80
2022-11-12T06:21:45.607Z,4.80
2022-11-12T06:24:06.223Z,4.80
2022-11-12T06:26:07.924Z,4.80
2022-11-12T06:28:09.666Z,4.80
2022-11-12T06:30:11.670Z,4.80
2022-11-12T06:32:13.408Z,4.80
2022-11-12T06:34:15.154Z,4.80
2022-11-12T06:36:19.040Z,4.80
2022-11-12T06:38:20.828Z,4.70
2022-11-12T06:40:22.493Z,4.70
2022-11-12T06:42:24.243Z,4.60
2022-11-12T06:44:26.070Z,4.60
2022-11-12T06:46:27.692Z,4.70
2022-11-12T06:48:29.919Z,4.80
2022-11-12T06:50:31.533Z,4.90
2022-11-12T06:52:33.156Z,5.00
2022-11-12T06:54:34.904Z,5.00
2022-11-12T06:56:36.801Z,5.10
2022-11-12T06:58:38.624Z,5.20
2022-11-12T07:00:40.264Z,5.30
2022-11-12T07:02:41.875Z,5.30
2022-11-12T07:04:43.501Z,5.40
2022-11-12T07:06:45.218Z,5.50
2022-11-12T07:08:49.296Z,5.60
2022-11-12T07:10:56.771Z,5.70
2022-11-12T07:12:58.988Z,5.80
2022-11-12T07:15:00.611Z,5.80
2022-11-12T07:17:02.239Z,5.90
2022-11-12T07:19:04.485Z,6.10
2022-11-12T07:21:12.284Z,6.30
2022-11-12T07:23:13.941Z,6.60
2022-11-12T07:25:15.691Z,7.00
2022-11-12T07:27:17.286Z,7.40
2022-11-12T07:29:35.695Z,7.60
2022-11-12T07:31:40.569Z,7.90
2022-11-12T07:33:42.969Z,8.50
2022-11-12T07:35:44.621Z,8.90
2022-11-12T07:37:46.267Z,9.00
2022-11-12T07:39:47.867Z,9.20
2022-11-12T07:41:50.100Z,9.10
2022-11-12T07:43:53.684Z,9.20
2022-11-12T07:45:59.189Z,9.20
2022-11-12T07:48:00.841Z,9.30
2022-11-12T07:50:02.455Z,9.40
2022-11-12T07:52:04.424Z,9.70
2022-11-12T07:54:06.115Z,9.90
2022-11-12T07:56:09.740Z,10.10
2022-11-12T07:58:11.361Z,10.60
2022-11-12T08:00:13.565Z,11.10
2022-11-12T08:02:15.412Z,11.70
2022-11-12T08:04:17.140Z,12.10
2022-11-12T08:06:19.048Z,12.50
2022-11-12T08:08:20.754Z,12.90
2022-11-12T08:10:22.480Z,13.30
2022-11-12T08:12:24.128Z,13.80
2022-11-12T08:14:25.968Z,14.20
2022-11-12T08:16:27.736Z,14.60
2022-11-12T08:18:30.107Z,14.90
2022-11-12T08:20:31.932Z,14.90
2022-11-12T08:22:33.587Z,15.20
2022-11-12T08:24:35.208Z,15.40
2022-11-12T08:26:36.881Z,15.30
2022-11-12T08:28:39.244Z,15.20
2022-11-12T08:30:40.930Z,14.70
2022-11-12T08:32:42.558Z,14.90
2022-11-12T08:34:44.382Z,14.80
2022-11-12T08:36:46.057Z,14.50
2022-11-12T08:38:47.763Z,14.60
2022-11-12T08:40:49.467Z,14.60
2022-11-12T08:42:58.569Z,14.70
2022-11-12T08:45:00.155Z,14.80
2022-11-12T08:47:02.213Z,14.70
2022-11-12T08:49:04.044Z,14.90
2022-11-12T08:51:06.488Z,14.90
2022-11-12T08:53:11.396Z,14.70
2022-11-12T08:55:13.064Z,14.20
2022-11-12T08:57:14.810Z,14.00
2022-11-12T08:59:16.485Z,13.60
2022-11-12T09:01:18.396Z,13.80
2022-11-12T09:03:22.617Z,14.10
2022-11-12T09:05:24.253Z,14.20
2022-11-12T09:07:48.655Z,14.40
2022-11-12T09:09:47.842Z,14.30
2022-11-12T09:11:49.577Z,13.80
2022-11-12T09:13:53.729Z,13.50
2022-11-12T09:16:00.518Z,13.20
2022-11-12T09:18:05.178Z,13.10
2022-11-12T09:20:07.236Z,12.90
2022-11-12T09:22:09.094Z,12.90
2022-11-12T09:24:10.742Z,12.60
2022-11-12T09:26:12.351Z,12.40
2022-11-12T09:28:18.838Z,12.60
2022-11-12T09:30:20.948Z,12.80
2022-11-12T09:32:22.582Z,13.00
2022-11-12T09:34:24.228Z,13.10
2022-11-12T09:36:25.916Z,12.80
2022-11-12T09:38:28.160Z,12.80
2022-11-12T09:40:52.118Z,12.90
2022-11-12T09:42:53.990Z,13.20
2022-11-12T09:45:22.182Z,13.50
2022-11-12T09:47:35.947Z,13.40
2022-11-12T09:49:57.758Z,13.30
2022-11-12T09:52:29.660Z,13.10
2022-11-12T09:54:33.748Z,13.20
2022-11-12T09:56:35.505Z,13.40
2022-11-12T09:58:37.580Z,13.00
2022-11-12T10:00:58.669Z,12.50
2022-11-12T10:03:11.832Z,12.60
2022-11-12T10:05:34.534Z,12.70
2022-11-12T10:07:48.603Z,12.90
2022-11-12T10:10:06.592Z,13.10
2022-11-12T10:12:31.569Z,13.30
2022-11-12T10:15:20.491Z,13.50
2022-11-12T10:17:31.365Z,13.80
2022-11-12T10:19:46.426Z,14.20
2022-11-12T10:22:18.689Z,14.10
2022-11-12T10:24:23.108Z,14.00
2022-11-12T10:26:26.063Z,14.30
2022-11-12T10:28:39.153Z,13.50
2022-11-12T10:30:42.849Z,13.30
2022-11-12T10:32:46.272Z,13.90
2022-11-12T10:34:47.960Z,13.80
2022-11-12T10:36:59.412Z,14.00
2022-11-12T10:39:01.108Z,14.80
2022-11-12T10:41:19.167Z,15.10
2022-11-12T10:43:23.715Z,15.50
2022-11-12T10:45:25.613Z,15.30
2022-11-12T10:47:42.959Z,15.60
2022-11-12T10:49:44.876Z,15.50
2022-11-12T10:51:56.817Z,15.80
2022-11-12T10:53:59.084Z,15.80
2022-11-12T10:56:21.137Z,15.80
2022-11-12T10:58:22.848Z,16.00
2022-11-12T11:00:24.952Z,16.00
2022-11-12T11:02:27.027Z,16.80
2022-11-12T11:04:36.396Z,17.20
2022-11-12T11:06:39.173Z,17.50
2022-11-12T11:08:47.720Z,17.90
2022-11-12T11:10:49.433Z,17.90
2022-11-12T11:13:22.207Z,17.60
2022-11-12T11:15:24.238Z,17.40
2022-11-12T11:17:25.887Z,17.20
2022-11-12T11:19:35.263Z,17.10
2022-11-12T11:21:49.236Z,17.10
2022-11-12T11:24:18.153Z,17.00
2022-11-12T11:26:57.650Z,16.80
2022-11-12T11:29:24.900Z,16.80
2022-11-12T11:31:38.598Z,16.80
2022-11-12T11:34:03.303Z,16.80
2022-11-12T11:36:20.537Z,16.90
2022-11-12T11:38:48.345Z,16.90
2022-11-12T11:41:05.304Z,17.00
2022-11-12T11:43:18.753Z,16.90
2022-11-12T11:45:56.281Z,16.70
2022-11-12T11:48:16.481Z,16.40
2022-11-12T11:50:28.312Z,16.30
2022-11-12T11:52:48.634Z,16.30
2022-11-12T11:55:02.266Z,16.40
2022-11-12T11:57:12.400Z,16.30
2022-11-12T11:59:42.508Z,16.20
2022-11-12T12:02:21.842Z,16.10
2022-11-12T12:05:11.400Z,16.10
2022-11-12T12:07:45.433Z,16.10
2022-11-12T12:09:50.181Z,16.10
2022-11-12T12:12:04.354Z,16.30
2022-11-12T12:14:24.608Z,16.40
2022-11-12T12:17:12.454Z,16.30
2022-11-12T12:19:35.089Z,16.40
2022-11-12T12:21:39.926Z,16.30
2022-11-12T12:24:01.555Z,16.10
2022-11-12T12:26:11.175Z,16.00
2022-11-12T12:28:15.864Z,15.80
2022-11-12T12:30:17.710Z,15.80
2022-11-12T12:32:32.153Z,15.90
2022-11-12T12:34:39.745Z,16.00
2022-11-12T12:36:42.393Z,16.00
2022-11-12T12:39:03.965Z,16.20
2022-11-12T12:41:27.644Z,16.30
2022-11-12T12:43:44.020Z,16.30
2022-11-12T12:45:46.881Z,16.30
2022-11-12T12:47:50.235Z,16.30
2022-11-12T12:49:53.418Z,16.50
2022-11-12T12:51:56.081Z,16.70
2022-11-12T12:53:59.042Z,16.80
2022-11-12T12:56:10.636Z,16.60
2022-11-12T12:58:41.189Z,16.60
2022-11-12T13:00:47.891Z,16.60
2022-11-12T13:02:49.696Z,16.60
2022-11-12T13:04:56.739Z,16.30
2022-11-12T13:06:58.995Z,16.30
2022-11-12T13:09:12.279Z,16.40
2022-11-12T13:12:00.959Z,16.30
2022-11-12T13:14:34.801Z,16.30
2022-11-12T13:16:51.630Z,16.30
2022-11-12T13:18:53.244Z,16.20
2022-11-12T13:21:08.653Z,16.20
2022-11-12T13:23:31.887Z,16.00
2022-11-12T13:25:33.681Z,16.00
2022-11-12T13:27:44.426Z,15.90
2022-11-12T13:29:47.543Z,15.80
2022-11-12T13:31:49.488Z,15.70
2022-11-12T13:33:51.212Z,15.50
2022-11-12T13:36:22.948Z,15.60
2022-11-12T13:38:25.540Z,15.30
2022-11-12T13:40:30.362Z,15.10
2022-11-12T13:42:50.433Z,15.00
2022-11-12T13:44:55.960Z,14.90
2022-11-12T13:46:58.088Z,14.70
2022-11-12T13:49:08.669Z,14.60
2022-11-12T13:51:19.101Z,14.60
2022-11-12T13:53:25.355Z,14.50
2022-11-12T13:55:26.980Z,14.50
2022-11-12T13:57:31.589Z,14.30
2022-11-12T13:59:33.328Z,14.30
2022-11-12T14:01:35.010Z,14.30
2022-11-12T14:03:47.081Z,14.30
2022-11-12T14:05:50.130Z,14.10
2022-11-12T14:08:03.984Z,13.90
2022-11-12T14:10:08.335Z,13.80
2022-11-12T14:12:19.335Z,13.80
2022-11-12T14:14:35.136Z,13.70
2022-11-12T14:17:01.381Z,13.70
2022-11-12T14:19:08.718Z,13.50
2022-11-12T14:21:16.608Z,13.40
2022-11-12T14:23:24.765Z,13.20
2022-11-12T14:25:28.459Z,13.20
2022-11-12T14:27:31.236Z,13.10
2022-11-12T14:29:36.014Z,12.90
2022-11-12T14:31:39.509Z,12.80
2022-11-12T14:33:41.163Z,12.70
2022-11-12T14:35:43.302Z,12.70
2022-11-12T14:37:51.192Z,12.60
2022-11-12T14:39:53.080Z,12.40
2022-11-12T14:41:58.424Z,12.30
2022-11-12T14:44:12.857Z,12.20
2022-11-12T14:46:43.695Z,12.10
2022-11-12T14:48:57.157Z,12.00
2022-11-12T14:51:09.197Z,11.90
2022-11-12T14:53:48.418Z,11.80
2022-11-12T14:55:52.820Z,11.70
2022-11-12T14:57:58.640Z,11.60
2022-11-12T15:00:16.048Z,11.60
2022-11-12T15:02:47.245Z,11.50
2022-11-12T15:05:00.645Z,11.40
2022-11-12T15:07:02.336Z,11.30
2022-11-12T15:09:05.156Z,11.30
2022-11-12T15:11:22.311Z,11.10
2022-11-12T15:13:27.484Z,11.10
2022-11-12T15:15:29.596Z,10.90
2022-11-12T15:17:33.624Z,10.90
2022-11-12T15:19:35.957Z,10.80
2022-11-12T15:21:47.174Z,10.70
2022-11-12T15:24:10.092Z,10.70
2022-11-12T15:26:23.125Z,10.60
2022-11-12T15:28:26.470Z,10.50
2022-11-12T15:30:31.718Z,10.40
2022-11-12T15:32:34.587Z,10.30
2022-11-12T15:34:41.943Z,10.20
2022-11-12T15:36:43.680Z,10.10
2022-11-12T15:38:53.644Z,10.00
2022-11-12T15:40:57.751Z,10.00
2022-11-12T15:43:01.188Z,9.90
2022-11-12T15:45:09.312Z,9.80
2022-11-12T15:47:22.782Z,9.70
2022-11-12T15:49:24.529Z,9.60
2022-11-12T15:51:26.396Z,9.50
2022-11-12T15:53:28.981Z,9.50
2022-11-12T15:55:32.832Z,9.50
2022-11-12T15:57:39.983Z,9.40
2022-11-12T15:59:42.288Z,9.40
2022-11-12T16:01:44.560Z,9.30
2022-11-12T16:03:46.300Z,9.20
2022-11-12T16:05:51.190Z,9.20
2022-11-12T16:07:52.836Z,9.20
2022-11-12T16:09:54.585Z,9.20
2022-11-12T16:11:57.414Z,9.20
2022-11-12T16:13:59.420Z,9.10
2022-11-12T16:16:04.947Z,9.00
2022-11-12T16:18:09.699Z,9.00
2022-11-12T16:20:21.338Z,9.00
2022-11-12T16:22:23.132Z,8.90
2022-11-12T16:24:24.771Z,8.90
2022-11-12T16:26:30.289Z,8.90
2022-11-12T16:28:31.905Z,8.80
2022-11-12T16:30:34.468Z,8.70
2022-11-12T16:32:36.095Z,8.60
2022-11-12T16:34:37.935Z,8.60
2022-11-12T16:36:40.096Z,8.60
2022-11-12T16:38:41.811Z,8.60
2022-11-12T16:40:44.970Z,8.60
2022-11-12T16:42:46.736Z,8.60
2022-11-12T16:44:48.371Z,8.60
2022-11-12T16:46:50.017Z,8.60
2022-11-12T16:48:52.656Z,8.50
2022-11-12T16:50:54.337Z,8.50
2022-11-12T16:52:56.484Z,8.50
2022-11-12T16:55:04.100Z,8.50
2022-11-12T16:57:06.310Z,8.40
2022-11-12T16:59:10.733Z,8.40
2022-11-12T17:01:15.883Z,8.40
2022-11-12T17:03:17.523Z,8.30
2022-11-12T17:05:24.922Z,8.30
2022-11-12T17:07:26.716Z,8.20
2022-11-12T17:09:28.343Z,8.20
2022-11-12T17:11:29.957Z,8.20
2022-11-12T17:13:31.599Z,8.20
2022-11-12T17:15:33.211Z,8.20
2022-11-12T17:17:35.201Z,8.10
2022-11-12T17:19:36.861Z,8.10
2022-11-12T17:21:38.625Z,8.10
2022-11-12T17:23:41.205Z,8.10
2022-11-12T17:25:42.832Z,8.00
2022-11-12T17:27:44.514Z,8.00
2022-11-12T17:29:46.145Z,7.90
2022-11-12T17:31:49.188Z,7.80
2022-11-12T17:33:52.911Z,7.80
2022-11-12T17:35:54.675Z,7.60
2022-11-12T17:37:56.329Z,7.60
2022-11-12T17:39:58.184Z,7.50
2022-11-12T17:41:59.866Z,7.50
2022-11-12T17:44:02.298Z,7.40
2022-11-12T17:46:05.833Z,7.40
2022-11-12T17:48:07.733Z,7.30
2022-11-12T17:50:09.808Z,7.20
2022-11-12T17:52:11.452Z,7.30
2022-11-12T17:54:13.075Z,7.30
2022-11-12T17:56:17.094Z,7.30
2022-11-12T17:58:18.716Z,7.30
2022-11-12T18:00:20.513Z,7.20
2022-11-12T18:02:22.198Z,7.20
2022-11-12T18:04:24.115Z,7.20
2022-11-12T18:06:32.260Z,7.10
2022-11-12T18:08:33.893Z,7.10
2022-11-12T18:10:35.617Z,7.10
2022-11-12T18:12:37.247Z,7.00
2022-11-12T18:14:38.857Z,7.00
2022-11-12T18:16:40.622Z,6.90
2022-11-12T18:18:42.346Z,6.80
2022-11-12T18:20:44.176Z,6.80
2022-11-12T18:22:46.167Z,6.80
2022-11-12T18:24:48.252Z,6.80
2022-11-12T18:26:49.887Z,6.90
2022-11-12T18:28:55.363Z,6.90
2022-11-12T18:31:02.229Z,7.00
2022-11-12T18:33:04.265Z,7.00
2022-11-12T18:35:06.388Z,7.10
2022-11-12T18:37:08.254Z,7.10
2022-11-12T18:39:09.948Z,7.00
2022-11-12T18:41:14.361Z,7.00
2022-11-12T18:43:16.238Z,7.00
2022-11-12T18:45:18.331Z,7.00
2022-11-12T18:47:19.981Z,7.00
2022-11-12T18:49:22.293Z,7.10
2022-11-12T18:51:23.974Z,7.10
2022-11-12T18:53:26.954Z,7.10
2022-11-12T18:55:28.925Z,7.20
2022-11-12T18:57:30.583Z,7.30
2022-11-12T18:59:32.647Z,7.30
2022-11-12T19:01:34.631Z,7.40
2022-11-12T19:03:36.904Z,7.50
2022-11-12T19:05:38.603Z,7.60
2022-11-12T19:07:40.305Z,7.60
2022-11-12T19:09:42.144Z,7.60
2022-11-12T19:11:43.775Z,7.60
2022-11-12T19:13:49.433Z,7.60
2022-11-12T19:15:51.431Z,7.50
2022-11-12T19:17:53.177Z,7.50
2022-11-12T19:19:54.804Z,7.40
2022-11-12T19:21:56.609Z,7.50
2022-11-12T19:24:00.389Z,7.50
2022-11-12T19:26:03.953Z,7.40
2022-11-12T19:28:06.677Z,7.40
2022-11-12T19:30:09.366Z,7.40
2022-11-12T19:32:11.697Z,7.40
2022-11-12T19:34:13.505Z,7.30
2022-11-12T19:36:17.789Z,7.30
2022-11-12T19:38:19.727Z,7.30
2022-11-12T19:40:21.768Z,7.20
2022-11-12T19:42:23.880Z,7.20
2022-11-12T19:44:25.844Z,7.20
2022-11-12T19:46:27.826Z,7.20
2022-11-12T19:48:31.205Z,7.20
2022-11-12T19:50:34.776Z,7.20
2022-11-12T19:52:36.679Z,7.10
2022-11-12T19:54:38.503Z,7.00
2022-11-12T19:56:40.383Z,7.00
2022-11-12T19:58:46.188Z,6.90
2022-11-12T20:00:48.121Z,6.90
2022-11-12T20:02:50.190Z,6.80
2022-11-12T20:04:52.389Z,6.80
2022-11-12T20:06:54.440Z,6.80
2022-11-12T20:08:59.962Z,6.80
2022-11-12T20:11:02.363Z,6.80
2022-11-12T20:13:04.362Z,6.70
2022-11-12T20:15:06.789Z,6.70
2022-11-12T20:17:08.497Z,6.60
2022-11-12T20:19:10.128Z,6.60
2022-11-12T20:21:11.945Z,6.60
2022-11-12T20:23:13.705Z,6.60
2022-11-12T20:25:15.406Z,6.60
2022-11-12T20:27:17.686Z,6.60
2022-11-12T20:29:19.404Z,6.60
2022-11-12T20:31:21.512Z,6.70
2022-11-12T20:33:23.272Z,6.60
2022-11-12T20:35:24.866Z,6.50
2022-11-12T20:37:26.515Z,6.50
2022-11-12T20:39:28.246Z,6.40
2022-11-12T20:41:31.260Z,6.40
2022-11-12T20:43:34.183Z,6.40
2022-11-12T20:45:36.508Z,6.30
2022-11-12T20:47:38.567Z,6.20
2022-11-12T20:49:40.253Z,6.20
2022-11-12T20:51:41.876Z,6.20
2022-11-12T20:53:43.910Z,6.20
2022-11-12T20:55:45.632Z,6.20
2022-11-12T20:57:47.345Z,6.20
2022-11-12T20:59:51.326Z,6.20
2022-11-12T21:01:57.667Z,6.20
2022-11-12T21:03:59.401Z,6.20
2022-11-12T21:06:03.177Z,6.20
2022-11-12T21:08:05.005Z,6.20
2022-11-12T21:10:07.026Z,6.10
2022-11-12T21:12:08.782Z,6.10
2022-11-12T21:14:11.509Z,6.10
2022-11-12T21:16:14.413Z,6.00
2022-11-12T21:18:16.060Z,5.90
2022-11-12T21:20:17.706Z,5.90
2022-11-12T21:22:19.472Z,5.90
2022-11-12T21:24:21.183Z,5.90
2022-11-12T21:26:23.524Z,6.00
2022-11-12T21:28:25.680Z,6.10
2022-11-12T21:30:27.716Z,6.10
2022-11-12T21:32:29.788Z,6.20
2022-11-12T21:34:31.670Z,6.20
2022-11-12T21:36:35.554Z,6.10
2022-11-12T21:38:37.164Z,6.10
2022-11-12T21:40:38.820Z,6.10
2022-11-12T21:42:44.466Z,6.00
2022-11-12T21:44:46.229Z,6.10
2022-11-12T21:46:48.265Z,6.00
2022-11-12T21:48:54.796Z,6.00
2022-11-12T21:51:01.710Z,5.90
2022-11-12T21:53:03.494Z,5.90
2022-11-12T21:55:05.947Z,5.90
2022-11-12T21:57:07.712Z,5.90
2022-11-12T21:59:09.320Z,5.90
2022-11-12T22:01:10.928Z,5.90
2022-11-12T22:03:12.588Z,6.00
2022-11-12T22:05:15.163Z,6.00
2022-11-12T22:07:16.883Z,6.00
2022-11-12T22:09:18.558Z,6.00
2022-11-12T22:11:20.743Z,6.00
2022-11-12T22:13:27.318Z,5.90
2022-11-12T22:15:29.400Z,5.80
2022-11-12T22:17:33.483Z,5.80
2022-11-12T22:19:35.353Z,5.80
2022-11-12T22:21:40.028Z,5.80
2022-11-12T22:23:42.181Z,5.80
2022-11-12T22:25:43.869Z,5.70
2022-11-12T22:27:46.437Z,5.70
2022-11-12T22:29:48.192Z,5.50
2022-11-12T22:31:49.880Z,5.50
2022-11-12T22:33:51.536Z,5.50
2022-11-12T22:35:53.183Z,5.50
2022-11-12T22:37:54.950Z,5.60
2022-11-12T22:39:56.626Z,5.60
2022-11-12T22:41:58.247Z,5.60
2022-11-12T22:44:02.225Z,5.60
2022-11-12T22:46:09.981Z,5.70
2022-11-12T22:48:11.729Z,5.80
2022-11-12T22:50:13.455Z,5.80
2022-11-12T22:52:15.184Z,5.80
2022-11-12T22:54:17.961Z,5.80
2022-11-12T22:56:19.639Z,5.90
2022-11-12T22:58:22.211Z,5.90
2022-11-12T23:00:30.903Z,6.00
2022-11-12T23:02:34.512Z,5.90
2022-11-12T23:04:36.217Z,5.90
2022-11-12T23:06:37.904Z,5.90
2022-11-12T23:08:39.891Z,5.90
2022-11-12T23:10:45.576Z,5.90
2022-11-12T23:12:47.796Z,5.90
2022-11-12T23:14:49.948Z,5.90
2022-11-12T23:16:51.771Z,5.80
2022-11-12T23:18:54.881Z,5.80
2022-11-12T23:21:02.838Z,5.80
2022-11-12T23:23:04.549Z,5.80
2022-11-12T23:25:07.052Z,5.70
2022-11-12T23:27:08.744Z,5.60
2022-11-12T23:29:13.484Z,5.50
2022-11-12T23:31:20.387Z,5.40
2022-11-12T23:33:22.044Z,5.30
2022-11-12T23:35:23.720Z,5.20
2022-11-12T23:37:25.351Z,5.10
2022-11-12T23:39:27.019Z,5.10
2022-11-12T23:41:28.699Z,5.00
2022-11-12T23:43:30.645Z,5.00
2022-11-12T23:45:36.207Z,4.90
2022-11-12T23:47:37.867Z,4.90
2022-11-12T23:49:39.497Z,4.90
2022-11-12T23:51:41.116Z,5.00
2022-11-12T23:53:42.898Z,5.10
2022-11-12T23:55:44.945Z,5.30
2022-11-12T23:57:46.753Z,5.60
2022-11-12T23:59:48.425Z,5.70
